sensor_id;sensor_type;location;lat;lon;timestamp;temperature;humidity
77865;DHT22;67061;48.524;9.040;2024-01-16T00:01:19;-2.30;93.40
77865;DHT22;67061;48.524;9.040;2024-01-16T00:03:46;-2.40;94.20
77865;DHT22;67061;48.524;9.040;2024-01-16T00:06:14;-2.30;94.20
77865;DHT22;67061;48.524;9.040;2024-01-16T00:08:41;-2.30;94.20
77865;DHT22;67061;48.524;9.040;2024-01-16T00:11:08;-2.30;93.80
77865;DHT22;67061;48.524;9.040;2024-01-16T00:13:35;-2.30;93.90
77865;DHT22;67061;48.524;9.040;2024-01-16T00:16:02;-2.30;93.80
77865;DHT22;67061;48.524;9.040;2024-01-16T00:18:30;-2.30;94.00
77865;DHT22;67061;48.524;9.040;2024-01-16T00:20:57;-2.30;92.70
77865;DHT22;67061;48.524;9.040;2024-01-16T00:23:25;-2.20;92.60
77865;DHT22;67061;48.524;9.040;2024-01-16T00:25:52;-2.20;92.40
77865;DHT22;67061;48.524;9.040;2024-01-16T00:28:19;-2.20;92.30
77865;DHT22;67061;48.524;9.040;2024-01-16T00:30:46;-2.10;92.00
77865;DHT22;67061;48.524;9.040;2024-01-16T00:33:13;-2.10;92.00
77865;DHT22;67061;48.524;9.040;2024-01-16T00:35:41;-2.10;92.30
77865;DHT22;67061;48.524;9.040;2024-01-16T00:38:08;-2.10;92.70
77865;DHT22;67061;48.524;9.040;2024-01-16T00:40:36;-2.10;92.10
77865;DHT22;67061;48.524;9.040;2024-01-16T00:43:03;-2.10;91.60
77865;DHT22;67061;48.524;9.040;2024-01-16T00:45:30;-2.10;91.80
77865;DHT22;67061;48.524;9.040;2024-01-16T00:47:57;-2.10;91.90
77865;DHT22;67061;48.524;9.040;2024-01-16T00:50:24;-2.10;92.00
77865;DHT22;67061;48.524;9.040;2024-01-16T00:52:51;-2.10;91.90
77865;DHT22;67061;48.524;9.040;2024-01-16T00:55:18;-2.10;92.30
77865;DHT22;67061;48.524;9.040;2024-01-16T00:57:46;-2.10;91.60
77865;DHT22;67061;48.524;9.040;2024-01-16T01:00:13;-2.10;91.90
77865;DHT22;67061;48.524;9.040;2024-01-16T01:02:40;-2.10;92.20
77865;DHT22;67061;48.524;9.040;2024-01-16T01:05:08;-2.10;93.10
77865;DHT22;67061;48.524;9.040;2024-01-16T01:07:35;-2.10;93.40
77865;DHT22;67061;48.524;9.040;2024-01-16T01:10:02;-2.10;92.70
77865;DHT22;67061;48.524;9.040;2024-01-16T01:12:31;-2.10;92.70
77865;DHT22;67061;48.524;9.040;2024-01-16T01:14:59;-2.10;93.20
77865;DHT22;67061;48.524;9.040;2024-01-16T01:17:26;-2.10;92.40
77865;DHT22;67061;48.524;9.040;2024-01-16T01:19:53;-2.10;92.20
77865;DHT22;67061;48.524;9.040;2024-01-16T01:22:20;-2.10;92.50
77865;DHT22;67061;48.524;9.040;2024-01-16T01:24:47;-2.20;93.60
77865;DHT22;67061;48.524;9.040;2024-01-16T01:27:14;-2.20;94.20
77865;DHT22;67061;48.524;9.040;2024-01-16T01:29:41;-2.30;94.70
77865;DHT22;67061;48.524;9.040;2024-01-16T01:32:09;-2.30;94.90
77865;DHT22;67061;48.524;9.040;2024-01-16T01:34:36;-2.30;95.40
77865;DHT22;67061;48.524;9.040;2024-01-16T01:37:04;-2.30;95.60
77865;DHT22;67061;48.524;9.040;2024-01-16T01:39:31;-2.30;95.40
77865;DHT22;67061;48.524;9.040;2024-01-16T01:41:58;-2.30;95.70
77865;DHT22;67061;48.524;9.040;2024-01-16T01:44:25;-2.30;95.30
77865;DHT22;67061;48.524;9.040;2024-01-16T01:46:54;-2.30;93.40
77865;DHT22;67061;48.524;9.040;2024-01-16T01:49:23;-2.30;93.70
77865;DHT22;67061;48.524;9.040;2024-01-16T01:51:51;-2.20;93.50
77865;DHT22;67061;48.524;9.040;2024-01-16T01:54:19;-2.20;93.70
77865;DHT22;67061;48.524;9.040;2024-01-16T01:56:48;-2.20;92.90
77865;DHT22;67061;48.524;9.040;2024-01-16T01:59:17;-2.20;92.60
77865;DHT22;67061;48.524;9.040;2024-01-16T02:01:45;-2.20;92.20
77865;DHT22;67061;48.524;9.040;2024-01-16T02:04:13;-2.20;91.70
77865;DHT22;67061;48.524;9.040;2024-01-16T02:06:42;-2.20;92.00
77865;DHT22;67061;48.524;9.040;2024-01-16T02:09:10;-2.20;92.80
77865;DHT22;67061;48.524;9.040;2024-01-16T02:11:38;-2.20;93.50
77865;DHT22;67061;48.524;9.040;2024-01-16T02:14:06;-2.30;94.20
77865;DHT22;67061;48.524;9.040;2024-01-16T02:16:36;-2.30;94.10
77865;DHT22;67061;48.524;9.040;2024-01-16T02:19:03;-2.40;94.60
77865;DHT22;67061;48.524;9.040;2024-01-16T02:21:35;-2.40;94.90
77865;DHT22;67061;48.524;9.040;2024-01-16T02:24:05;-2.40;94.50
77865;DHT22;67061;48.524;9.040;2024-01-16T02:26:33;-2.40;94.30
77865;DHT22;67061;48.524;9.040;2024-01-16T02:29:01;-2.40;94.30
77865;DHT22;67061;48.524;9.040;2024-01-16T02:31:29;-2.40;94.00
77865;DHT22;67061;48.524;9.040;2024-01-16T02:33:56;-2.50;94.10
77865;DHT22;67061;48.524;9.040;2024-01-16T02:36:23;-2.50;93.30
77865;DHT22;67061;48.524;9.040;2024-01-16T02:38:50;-2.60;93.70
77865;DHT22;67061;48.524;9.040;2024-01-16T02:41:19;-2.60;93.50
77865;DHT22;67061;48.524;9.040;2024-01-16T02:43:46;-2.60;93.80
77865;DHT22;67061;48.524;9.040;2024-01-16T02:46:13;-2.60;94.10
77865;DHT22;67061;48.524;9.040;2024-01-16T02:48:41;-2.70;94.80
77865;DHT22;67061;48.524;9.040;2024-01-16T02:51:08;-2.80;94.90
77865;DHT22;67061;48.524;9.040;2024-01-16T02:53:35;-2.90;95.40
77865;DHT22;67061;48.524;9.040;2024-01-16T02:56:02;-3.00;95.30
77865;DHT22;67061;48.524;9.040;2024-01-16T02:58:31;-3.00;95.00
77865;DHT22;67061;48.524;9.040;2024-01-16T03:00:58;-3.10;95.10
77865;DHT22;67061;48.524;9.040;2024-01-16T03:03:27;-3.20;96.10
77865;DHT22;67061;48.524;9.040;2024-01-16T03:05:54;-3.20;96.50
77865;DHT22;67061;48.524;9.040;2024-01-16T03:08:21;-3.30;96.60
77865;DHT22;67061;48.524;9.040;2024-01-16T03:10:48;-3.40;96.30
77865;DHT22;67061;48.524;9.040;2024-01-16T03:13:16;-3.40;95.80
77865;DHT22;67061;48.524;9.040;2024-01-16T03:15:44;-3.40;96.00
77865;DHT22;67061;48.524;9.040;2024-01-16T03:18:11;-3.40;95.30
77865;DHT22;67061;48.524;9.040;2024-01-16T03:20:38;-3.40;95.30
77865;DHT22;67061;48.524;9.040;2024-01-16T03:23:05;-3.50;95.30
77865;DHT22;67061;48.524;9.040;2024-01-16T03:25:32;-3.50;96.10
77865;DHT22;67061;48.524;9.040;2024-01-16T03:28:04;-3.60;97.00
77865;DHT22;67061;48.524;9.040;2024-01-16T03:30:33;-3.70;97.60
77865;DHT22;67061;48.524;9.040;2024-01-16T03:33:03;-3.80;98.80
77865;DHT22;67061;48.524;9.040;2024-01-16T03:35:30;-3.90;98.80
77865;DHT22;67061;48.524;9.040;2024-01-16T03:37:57;-4.00;99.40
77865;DHT22;67061;48.524;9.040;2024-01-16T03:40:24;-4.10;99.90
77865;DHT22;67061;48.524;9.040;2024-01-16T03:42:51;-4.10;99.90
77865;DHT22;67061;48.524;9.040;2024-01-16T03:45:18;-4.20;99.90
77865;DHT22;67061;48.524;9.040;2024-01-16T03:47:45;-4.20;99.90
77865;DHT22;67061;48.524;9.040;2024-01-16T03:50:13;-4.30;99.90
77865;DHT22;67061;48.524;9.040;2024-01-16T03:52:40;-4.50;99.90
77865;DHT22;67061;48.524;9.040;2024-01-16T03:55:08;-4.60;99.90
77865;DHT22;67061;48.524;9.040;2024-01-16T03:57:35;-4.60;99.90
77865;DHT22;67061;48.524;9.040;2024-01-16T04:00:02;-4.80;99.90
77865;DHT22;67061;48.524;9.040;2024-01-16T04:02:31;-4.90;99.90
77865;DHT22;67061;48.524;9.040;2024-01-16T04:04:58;-4.90;99.90
77865;DHT22;67061;48.524;9.040;2024-01-16T04:07:26;-4.90;99.90
77865;DHT22;67061;48.524;9.040;2024-01-16T04:09:53;-5.00;99.90
77865;DHT22;67061;48.524;9.040;2024-01-16T04:12:20;-4.90;99.90
77865;DHT22;67061;48.524;9.040;2024-01-16T04:14:46;-4.90;99.90
77865;DHT22;67061;48.524;9.040;2024-01-16T04:17:13;-5.00;99.90
77865;DHT22;67061;48.524;9.040;2024-01-16T04:19:40;-5.20;99.90
77865;DHT22;67061;48.524;9.040;2024-01-16T04:22:07;-5.30;99.90
77865;DHT22;67061;48.524;9.040;2024-01-16T04:24:36;-5.40;99.90
77865;DHT22;67061;48.524;9.040;2024-01-16T04:27:03;-5.40;99.90
77865;DHT22;67061;48.524;9.040;2024-01-16T04:29:30;-5.50;99.90
77865;DHT22;67061;48.524;9.040;2024-01-16T04:31:57;-5.60;99.90
77865;DHT22;67061;48.524;9.040;2024-01-16T04:34:24;-5.60;99.90
77865;DHT22;67061;48.524;9.040;2024-01-16T04:36:51;-5.70;99.90
77865;DHT22;67061;48.524;9.040;2024-01-16T04:39:18;-5.70;99.90
77865;DHT22;67061;48.524;9.040;2024-01-16T04:41:46;-5.70;99.90
77865;DHT22;67061;48.524;9.040;2024-01-16T04:44:13;-5.70;99.90
77865;DHT22;67061;48.524;9.040;2024-01-16T04:46:40;-5.70;99.90
77865;DHT22;67061;48.524;9.040;2024-01-16T04:49:07;-5.80;99.90
77865;DHT22;67061;48.524;9.040;2024-01-16T04:51:34;-5.90;99.90
77865;DHT22;67061;48.524;9.040;2024-01-16T04:54:01;-6.00;99.90
77865;DHT22;67061;48.524;9.040;2024-01-16T04:56:28;-6.00;99.90
77865;DHT22;67061;48.524;9.040;2024-01-16T04:58:56;-6.10;99.90
77865;DHT22;67061;48.524;9.040;2024-01-16T05:01:23;-6.00;99.90
77865;DHT22;67061;48.524;9.040;2024-01-16T05:03:50;-6.00;99.90
77865;DHT22;67061;48.524;9.040;2024-01-16T05:06:17;-6.10;99.90
77865;DHT22;67061;48.524;9.040;2024-01-16T05:08:44;-6.20;99.90
77865;DHT22;67061;48.524;9.040;2024-01-16T05:11:11;-6.30;99.90
77865;DHT22;67061;48.524;9.040;2024-01-16T05:13:38;-6.30;99.90
77865;DHT22;67061;48.524;9.040;2024-01-16T05:16:07;-6.40;99.90
77865;DHT22;67061;48.524;9.040;2024-01-16T05:18:34;-6.50;99.90
77865;DHT22;67061;48.524;9.040;2024-01-16T05:21:00;-6.50;99.90
77865;DHT22;67061;48.524;9.040;2024-01-16T05:23:27;-6.60;99.90
77865;DHT22;67061;48.524;9.040;2024-01-16T05:25:54;-6.60;99.90
77865;DHT22;67061;48.524;9.040;2024-01-16T05:28:21;-6.60;99.90
77865;DHT22;67061;48.524;9.040;2024-01-16T05:30:48;-6.70;99.90
77865;DHT22;67061;48.524;9.040;2024-01-16T05:33:17;-6.70;99.90
77865;DHT22;67061;48.524;9.040;2024-01-16T05:35:43;-6.80;99.90
77865;DHT22;67061;48.524;9.040;2024-01-16T05:38:10;-6.80;99.90
77865;DHT22;67061;48.524;9.040;2024-01-16T05:40:38;-6.80;99.90
77865;DHT22;67061;48.524;9.040;2024-01-16T05:43:05;-6.80;99.90
77865;DHT22;67061;48.524;9.040;2024-01-16T05:45:32;-6.80;99.90
77865;DHT22;67061;48.524;9.040;2024-01-16T05:47:59;-6.80;99.90
77865;DHT22;67061;48.524;9.040;2024-01-16T05:50:27;-6.70;99.90
77865;DHT22;67061;48.524;9.040;2024-01-16T05:52:54;-6.70;99.90
77865;DHT22;67061;48.524;9.040;2024-01-16T05:55:21;-6.70;99.90
77865;DHT22;67061;48.524;9.040;2024-01-16T05:57:48;-6.70;99.90
77865;DHT22;67061;48.524;9.040;2024-01-16T06:00:15;-6.70;99.90
77865;DHT22;67061;48.524;9.040;2024-01-16T06:02:43;-6.80;99.90
77865;DHT22;67061;48.524;9.040;2024-01-16T06:05:10;-6.90;99.90
77865;DHT22;67061;48.524;9.040;2024-01-16T06:07:38;-7.00;99.90
77865;DHT22;67061;48.524;9.040;2024-01-16T06:10:07;-7.10;99.90
77865;DHT22;67061;48.524;9.040;2024-01-16T06:12:35;-7.10;99.90
77865;DHT22;67061;48.524;9.040;2024-01-16T06:15:03;-7.10;99.90
77865;DHT22;67061;48.524;9.040;2024-01-16T06:17:30;-7.10;99.90
77865;DHT22;67061;48.524;9.040;2024-01-16T06:19:57;-7.30;99.90
77865;DHT22;67061;48.524;9.040;2024-01-16T06:22:24;-7.20;99.90
77865;DHT22;67061;48.524;9.040;2024-01-16T06:24:52;-7.30;99.90
77865;DHT22;67061;48.524;9.040;2024-01-16T06:27:19;-7.30;99.90
77865;DHT22;67061;48.524;9.040;2024-01-16T06:29:46;-7.30;99.90
77865;DHT22;67061;48.524;9.040;2024-01-16T06:32:13;-7.20;99.90
77865;DHT22;67061;48.524;9.040;2024-01-16T06:34:40;-7.10;99.90
77865;DHT22;67061;48.524;9.040;2024-01-16T06:37:07;-7.10;99.90
77865;DHT22;67061;48.524;9.040;2024-01-16T06:39:34;-7.10;99.90
77865;DHT22;67061;48.524;9.040;2024-01-16T06:42:03;-7.10;99.90
77865;DHT22;67061;48.524;9.040;2024-01-16T06:44:30;-7.10;99.90
77865;DHT22;67061;48.524;9.040;2024-01-16T06:46:57;-7.30;99.90
77865;DHT22;67061;48.524;9.040;2024-01-16T06:49:24;-7.20;99.90
77865;DHT22;67061;48.524;9.040;2024-01-16T06:51:52;-7.10;99.90
77865;DHT22;67061;48.524;9.040;2024-01-16T06:54:19;-7.10;99.90
77865;DHT22;67061;48.524;9.040;2024-01-16T06:56:49;-7.10;99.90
77865;DHT22;67061;48.524;9.040;2024-01-16T06:59:17;-7.10;99.90
77865;DHT22;67061;48.524;9.040;2024-01-16T07:01:47;-7.10;99.90
77865;DHT22;67061;48.524;9.040;2024-01-16T07:04:14;-7.10;99.90
77865;DHT22;67061;48.524;9.040;2024-01-16T07:06:41;-7.20;99.90
77865;DHT22;67061;48.524;9.040;2024-01-16T07:09:09;-7.30;99.90
77865;DHT22;67061;48.524;9.040;2024-01-16T07:11:37;-7.30;99.90
77865;DHT22;67061;48.524;9.040;2024-01-16T07:14:08;-7.30;99.90
77865;DHT22;67061;48.524;9.040;2024-01-16T07:16:36;-7.30;99.90
77865;DHT22;67061;48.524;9.040;2024-01-16T07:19:03;-7.30;99.90
77865;DHT22;67061;48.524;9.040;2024-01-16T07:21:30;-7.30;99.90
77865;DHT22;67061;48.524;9.040;2024-01-16T07:23:57;-7.10;99.90
77865;DHT22;67061;48.524;9.040;2024-01-16T07:26:24;-7.20;99.90
77865;DHT22;67061;48.524;9.040;2024-01-16T07:28:51;-7.10;99.90
77865;DHT22;67061;48.524;9.040;2024-01-16T07:31:18;-7.10;99.90
77865;DHT22;67061;48.524;9.040;2024-01-16T07:33:47;-7.10;99.90
77865;DHT22;67061;48.524;9.040;2024-01-16T07:36:14;-7.10;99.90
77865;DHT22;67061;48.524;9.040;2024-01-16T07:38:41;-7.10;99.90
77865;DHT22;67061;48.524;9.040;2024-01-16T07:41:08;-7.10;99.90
77865;DHT22;67061;48.524;9.040;2024-01-16T07:43:35;-7.00;99.90
77865;DHT22;67061;48.524;9.040;2024-01-16T07:46:03;-7.00;99.90
77865;DHT22;67061;48.524;9.040;2024-01-16T07:48:30;-7.00;99.90
77865;DHT22;67061;48.524;9.040;2024-01-16T07:50:58;-6.90;99.90
77865;DHT22;67061;48.524;9.040;2024-01-16T07:53:25;-6.80;99.90
77865;DHT22;67061;48.524;9.040;2024-01-16T07:55:53;-6.80;99.90
77865;DHT22;67061;48.524;9.040;2024-01-16T07:58:21;-6.70;99.90
77865;DHT22;67061;48.524;9.040;2024-01-16T08:00:48;-6.70;99.90
77865;DHT22;67061;48.524;9.040;2024-01-16T08:03:15;-6.70;99.90
77865;DHT22;67061;48.524;9.040;2024-01-16T08:05:42;-6.60;99.90
77865;DHT22;67061;48.524;9.040;2024-01-16T08:08:10;-6.60;99.90
77865;DHT22;67061;48.524;9.040;2024-01-16T08:10:37;-6.50;99.90
77865;DHT22;67061;48.524;9.040;2024-01-16T08:13:04;-6.50;99.90
77865;DHT22;67061;48.524;9.040;2024-01-16T08:15:31;-6.40;99.90
77865;DHT22;67061;48.524;9.040;2024-01-16T08:17:58;-6.30;99.90
77865;DHT22;67061;48.524;9.040;2024-01-16T08:20:25;-6.10;99.90
77865;DHT22;67061;48.524;9.040;2024-01-16T08:22:52;-6.10;99.90
77865;DHT22;67061;48.524;9.040;2024-01-16T08:25:21;-6.00;99.90
77865;DHT22;67061;48.524;9.040;2024-01-16T08:27:47;-6.00;99.90
77865;DHT22;67061;48.524;9.040;2024-01-16T08:30:15;-6.00;99.90
77865;DHT22;67061;48.524;9.040;2024-01-16T08:32:42;-6.00;99.90
77865;DHT22;67061;48.524;9.040;2024-01-16T08:35:09;-6.10;99.90
77865;DHT22;67061;48.524;9.040;2024-01-16T08:37:36;-6.10;99.90
77865;DHT22;67061;48.524;9.040;2024-01-16T08:40:03;-6.10;99.90
77865;DHT22;67061;48.524;9.040;2024-01-16T08:42:32;-6.00;99.90
77865;DHT22;67061;48.524;9.040;2024-01-16T08:44:58;-5.90;99.90
77865;DHT22;67061;48.524;9.040;2024-01-16T08:47:25;-5.80;99.90
77865;DHT22;67061;48.524;9.040;2024-01-16T08:49:52;-5.70;99.90
77865;DHT22;67061;48.524;9.040;2024-01-16T08:52:19;-5.70;99.90
77865;DHT22;67061;48.524;9.040;2024-01-16T08:54:47;-5.60;99.90
77865;DHT22;67061;48.524;9.040;2024-01-16T08:57:13;-5.60;99.90
77865;DHT22;67061;48.524;9.040;2024-01-16T08:59:42;-5.40;99.90
77865;DHT22;67061;48.524;9.040;2024-01-16T09:02:09;-5.40;99.90
77865;DHT22;67061;48.524;9.040;2024-01-16T09:04:36;-5.40;99.90
77865;DHT22;67061;48.524;9.040;2024-01-16T09:07:03;-5.30;99.90
77865;DHT22;67061;48.524;9.040;2024-01-16T09:09:31;-5.20;99.90
77865;DHT22;67061;48.524;9.040;2024-01-16T09:11:58;-5.10;99.90
77865;DHT22;67061;48.524;9.040;2024-01-16T09:14:25;-4.90;99.90
77865;DHT22;67061;48.524;9.040;2024-01-16T09:16:54;-4.60;99.90
77865;DHT22;67061;48.524;9.040;2024-01-16T09:19:21;-4.50;98.60
77865;DHT22;67061;48.524;9.040;2024-01-16T09:21:48;-4.40;97.30
77865;DHT22;67061;48.524;9.040;2024-01-16T09:24:15;-4.20;97.20
77865;DHT22;67061;48.524;9.040;2024-01-16T09:26:42;-4.00;95.70
77865;DHT22;67061;48.524;9.040;2024-01-16T09:29:09;-3.90;95.40
77865;DHT22;67061;48.524;9.040;2024-01-16T09:31:36;-4.00;94.20
77865;DHT22;67061;48.524;9.040;2024-01-16T09:34:05;-4.00;93.60
77865;DHT22;67061;48.524;9.040;2024-01-16T09:36:32;-3.90;93.30
77865;DHT22;67061;48.524;9.040;2024-01-16T09:39:01;-3.90;93.10
77865;DHT22;67061;48.524;9.040;2024-01-16T09:41:28;-3.80;92.90
77865;DHT22;67061;48.524;9.040;2024-01-16T09:43:58;-3.80;91.40
77865;DHT22;67061;48.524;9.040;2024-01-16T09:46:26;-3.80;92.10
77865;DHT22;67061;48.524;9.040;2024-01-16T09:48:54;-3.60;92.60
77865;DHT22;67061;48.524;9.040;2024-01-16T09:51:23;-3.50;92.20
77865;DHT22;67061;48.524;9.040;2024-01-16T09:53:50;-3.50;92.10
77865;DHT22;67061;48.524;9.040;2024-01-16T09:56:21;-3.50;92.50
77865;DHT22;67061;48.524;9.040;2024-01-16T09:58:54;-3.50;92.70
77865;DHT22;67061;48.524;9.040;2024-01-16T10:01:21;-3.50;92.30
77865;DHT22;67061;48.524;9.040;2024-01-16T10:03:49;-3.40;91.80
77865;DHT22;67061;48.524;9.040;2024-01-16T10:06:17;-3.40;91.20
77865;DHT22;67061;48.524;9.040;2024-01-16T10:08:47;-3.20;90.20
77865;DHT22;67061;48.524;9.040;2024-01-16T10:11:14;-3.40;89.90
77865;DHT22;67061;48.524;9.040;2024-01-16T10:13:43;-3.40;90.50
77865;DHT22;67061;48.524;9.040;2024-01-16T10:16:10;-3.30;90.60
77865;DHT22;67061;48.524;9.040;2024-01-16T10:18:37;-3.20;89.30
77865;DHT22;67061;48.524;9.040;2024-01-16T10:21:04;-3.40;89.30
77865;DHT22;67061;48.524;9.040;2024-01-16T10:23:33;-3.40;89.10
77865;DHT22;67061;48.524;9.040;2024-01-16T10:26:08;-3.40;89.70
77865;DHT22;67061;48.524;9.040;2024-01-16T10:28:35;-3.40;88.70
77865;DHT22;67061;48.524;9.040;2024-01-16T10:31:03;-3.30;89.50
77865;DHT22;67061;48.524;9.040;2024-01-16T10:33:30;-3.20;89.60
77865;DHT22;67061;48.524;9.040;2024-01-16T10:36:11;-3.20;89.10
77865;DHT22;67061;48.524;9.040;2024-01-16T10:38:38;-3.10;88.70
77865;DHT22;67061;48.524;9.040;2024-01-16T10:41:09;-3.10;89.40
77865;DHT22;67061;48.524;9.040;2024-01-16T10:43:36;-3.10;89.00
77865;DHT22;67061;48.524;9.040;2024-01-16T10:46:11;-3.00;89.90
77865;DHT22;67061;48.524;9.040;2024-01-16T10:48:39;-3.00;88.80
77865;DHT22;67061;48.524;9.040;2024-01-16T10:51:06;-2.90;87.70
77865;DHT22;67061;48.524;9.040;2024-01-16T10:53:34;-2.90;88.10
77865;DHT22;67061;48.524;9.040;2024-01-16T10:56:02;-3.00;87.60
77865;DHT22;67061;48.524;9.040;2024-01-16T10:58:36;-2.90;88.50
77865;DHT22;67061;48.524;9.040;2024-01-16T11:01:10;-2.80;88.40
77865;DHT22;67061;48.524;9.040;2024-01-16T11:03:41;-2.70;88.20
77865;DHT22;67061;48.524;9.040;2024-01-16T11:06:10;-2.60;88.60
77865;DHT22;67061;48.524;9.040;2024-01-16T11:08:39;-2.50;89.70
77865;DHT22;67061;48.524;9.040;2024-01-16T11:11:07;-2.40;89.10
77865;DHT22;67061;48.524;9.040;2024-01-16T11:13:36;-2.30;90.10
77865;DHT22;67061;48.524;9.040;2024-01-16T11:16:04;-2.20;88.20
77865;DHT22;67061;48.524;9.040;2024-01-16T11:18:33;-2.10;87.70
77865;DHT22;67061;48.524;9.040;2024-01-16T11:21:01;-2.00;87.60
77865;DHT22;67061;48.524;9.040;2024-01-16T11:23:29;-1.80;88.20
77865;DHT22;67061;48.524;9.040;2024-01-16T11:25:56;-1.70;86.70
77865;DHT22;67061;48.524;9.040;2024-01-16T11:28:27;-1.60;87.00
77865;DHT22;67061;48.524;9.040;2024-01-16T11:30:57;-1.40;85.40
77865;DHT22;67061;48.524;9.040;2024-01-16T11:33:43;-1.30;86.00
77865;DHT22;67061;48.524;9.040;2024-01-16T11:36:48;-1.10;84.60
77865;DHT22;67061;48.524;9.040;2024-01-16T11:39:19;-1.00;83.00
77865;DHT22;67061;48.524;9.040;2024-01-16T11:41:53;-0.90;82.50
77865;DHT22;67061;48.524;9.040;2024-01-16T11:44:40;-0.70;81.80
77865;DHT22;67061;48.524;9.040;2024-01-16T11:47:15;-0.70;82.10
77865;DHT22;67061;48.524;9.040;2024-01-16T11:49:42;-0.70;81.50
77865;DHT22;67061;48.524;9.040;2024-01-16T11:52:09;-0.70;80.80
77865;DHT22;67061;48.524;9.040;2024-01-16T11:54:38;-0.60;81.90
77865;DHT22;67061;48.524;9.040;2024-01-16T11:57:36;-0.20;79.40
77865;DHT22;67061;48.524;9.040;2024-01-16T12:00:19;0.70;77.70
77865;DHT22;67061;48.524;9.040;2024-01-16T12:02:52;0.90;73.90
77865;DHT22;67061;48.524;9.040;2024-01-16T12:05:20;1.00;75.60
77865;DHT22;67061;48.524;9.040;2024-01-16T12:07:48;1.20;73.70
77865;DHT22;67061;48.524;9.040;2024-01-16T12:10:16;1.10;73.10
77865;DHT22;67061;48.524;9.040;2024-01-16T12:12:44;1.50;71.80
77865;DHT22;67061;48.524;9.040;2024-01-16T12:15:15;2.30;70.30
77865;DHT22;67061;48.524;9.040;2024-01-16T12:17:57;2.50;68.70
77865;DHT22;67061;48.524;9.040;2024-01-16T12:20:26;2.30;64.90
77865;DHT22;67061;48.524;9.040;2024-01-16T12:22:58;2.20;66.60
77865;DHT22;67061;48.524;9.040;2024-01-16T12:25:26;2.50;65.60
77865;DHT22;67061;48.524;9.040;2024-01-16T12:27:57;2.80;64.60
77865;DHT22;67061;48.524;9.040;2024-01-16T12:30:25;3.50;63.70
77865;DHT22;67061;48.524;9.040;2024-01-16T12:33:04;3.30;62.60
77865;DHT22;67061;48.524;9.040;2024-01-16T12:35:33;3.50;62.40
77865;DHT22;67061;48.524;9.040;2024-01-16T12:38:01;3.70;63.80
77865;DHT22;67061;48.524;9.040;2024-01-16T12:40:28;4.30;61.10
77865;DHT22;67061;48.524;9.040;2024-01-16T12:42:55;5.30;58.60
77865;DHT22;67061;48.524;9.040;2024-01-16T12:45:22;5.40;58.90
77865;DHT22;67061;48.524;9.040;2024-01-16T12:47:50;4.70;57.70
77865;DHT22;67061;48.524;9.040;2024-01-16T12:50:23;4.20;59.60
77865;DHT22;67061;48.524;9.040;2024-01-16T12:53:00;4.00;61.60
77865;DHT22;67061;48.524;9.040;2024-01-16T12:55:27;4.50;60.90
77865;DHT22;67061;48.524;9.040;2024-01-16T12:58:13;4.70;60.70
77865;DHT22;67061;48.524;9.040;2024-01-16T13:00:40;4.80;57.70
77865;DHT22;67061;48.524;9.040;2024-01-16T13:03:07;5.00;56.90
77865;DHT22;67061;48.524;9.040;2024-01-16T13:05:36;4.70;57.90
77865;DHT22;67061;48.524;9.040;2024-01-16T13:08:03;5.10;57.00
77865;DHT22;67061;48.524;9.040;2024-01-16T13:10:30;5.30;54.60
77865;DHT22;67061;48.524;9.040;2024-01-16T13:13:14;5.70;52.40
77865;DHT22;67061;48.524;9.040;2024-01-16T13:15:41;5.10;54.70
77865;DHT22;67061;48.524;9.040;2024-01-16T13:18:17;5.50;55.90
77865;DHT22;67061;48.524;9.040;2024-01-16T13:20:46;5.70;55.60
77865;DHT22;67061;48.524;9.040;2024-01-16T13:23:13;5.90;53.30
77865;DHT22;67061;48.524;9.040;2024-01-16T13:25:42;5.80;53.60
77865;DHT22;67061;48.524;9.040;2024-01-16T13:28:10;5.80;53.10
77865;DHT22;67061;48.524;9.040;2024-01-16T13:30:37;5.90;52.80
77865;DHT22;67061;48.524;9.040;2024-01-16T13:33:04;5.60;53.70
77865;DHT22;67061;48.524;9.040;2024-01-16T13:35:31;4.90;53.70
77865;DHT22;67061;48.524;9.040;2024-01-16T13:38:00;4.10;57.20
77865;DHT22;67061;48.524;9.040;2024-01-16T13:40:29;3.30;59.60
77865;DHT22;67061;48.524;9.040;2024-01-16T13:42:56;2.70;60.00
77865;DHT22;67061;48.524;9.040;2024-01-16T13:45:23;2.40;61.20
77865;DHT22;67061;48.524;9.040;2024-01-16T13:47:50;2.10;61.70
77865;DHT22;67061;48.524;9.040;2024-01-16T13:50:17;1.70;62.00
77865;DHT22;67061;48.524;9.040;2024-01-16T13:52:44;1.40;63.60
77865;DHT22;67061;48.524;9.040;2024-01-16T13:55:12;1.10;63.90
77865;DHT22;67061;48.524;9.040;2024-01-16T13:57:39;1.00;67.40
77865;DHT22;67061;48.524;9.040;2024-01-16T14:00:08;0.90;66.90
77865;DHT22;67061;48.524;9.040;2024-01-16T14:02:39;1.00;67.50
77865;DHT22;67061;48.524;9.040;2024-01-16T14:05:07;1.00;67.60
77865;DHT22;67061;48.524;9.040;2024-01-16T14:07:36;1.10;67.00
77865;DHT22;67061;48.524;9.040;2024-01-16T14:10:05;1.00;66.50
77865;DHT22;67061;48.524;9.040;2024-01-16T14:12:36;0.80;66.90
77865;DHT22;67061;48.524;9.040;2024-01-16T14:15:04;0.80;66.90
77865;DHT22;67061;48.524;9.040;2024-01-16T14:17:35;0.80;67.30
77865;DHT22;67061;48.524;9.040;2024-01-16T14:20:02;0.70;66.90
77865;DHT22;67061;48.524;9.040;2024-01-16T14:22:31;0.60;67.80
77865;DHT22;67061;48.524;9.040;2024-01-16T14:24:58;0.60;68.30
77865;DHT22;67061;48.524;9.040;2024-01-16T14:27:24;0.60;67.80
77865;DHT22;67061;48.524;9.040;2024-01-16T14:29:53;0.40;67.90
77865;DHT22;67061;48.524;9.040;2024-01-16T14:32:19;0.30;68.20
77865;DHT22;67061;48.524;9.040;2024-01-16T14:34:46;0.20;68.70
77865;DHT22;67061;48.524;9.040;2024-01-16T14:37:13;0.20;67.60
77865;DHT22;67061;48.524;9.040;2024-01-16T14:39:42;0.30;68.70
77865;DHT22;67061;48.524;9.040;2024-01-16T14:42:09;0.20;69.20
77865;DHT22;67061;48.524;9.040;2024-01-16T14:44:36;0.10;69.60
77865;DHT22;67061;48.524;9.040;2024-01-16T14:47:05;0.20;68.20
77865;DHT22;67061;48.524;9.040;2024-01-16T14:49:33;0.30;68.70
77865;DHT22;67061;48.524;9.040;2024-01-16T14:52:00;0.20;68.50
77865;DHT22;67061;48.524;9.040;2024-01-16T14:54:27;0.20;68.80
77865;DHT22;67061;48.524;9.040;2024-01-16T14:56:54;0.20;69.10
77865;DHT22;67061;48.524;9.040;2024-01-16T14:59:21;0.20;69.40
77865;DHT22;67061;48.524;9.040;2024-01-16T15:01:48;0.00;70.40
77865;DHT22;67061;48.524;9.040;2024-01-16T15:04:18;0.00;71.00
77865;DHT22;67061;48.524;9.040;2024-01-16T15:06:45;-0.10;71.50
77865;DHT22;67061;48.524;9.040;2024-01-16T15:09:12;-0.20;72.30
77865;DHT22;67061;48.524;9.040;2024-01-16T15:11:39;-0.30;73.40
77865;DHT22;67061;48.524;9.040;2024-01-16T15:14:06;-0.30;73.80
77865;DHT22;67061;48.524;9.040;2024-01-16T15:16:33;-0.30;73.70
77865;DHT22;67061;48.524;9.040;2024-01-16T15:19:00;-0.30;74.50
77865;DHT22;67061;48.524;9.040;2024-01-16T15:21:28;-0.40;74.90
77865;DHT22;67061;48.524;9.040;2024-01-16T15:23:55;-0.50;75.30
77865;DHT22;67061;48.524;9.040;2024-01-16T15:26:22;-0.60;75.50
77865;DHT22;67061;48.524;9.040;2024-01-16T15:28:51;-0.70;75.70
77865;DHT22;67061;48.524;9.040;2024-01-16T15:31:17;-0.80;74.90
77865;DHT22;67061;48.524;9.040;2024-01-16T15:33:45;-0.90;75.10
77865;DHT22;67061;48.524;9.040;2024-01-16T15:36:11;-1.00;76.40
77865;DHT22;67061;48.524;9.040;2024-01-16T15:38:40;-1.10;76.90
77865;DHT22;67061;48.524;9.040;2024-01-16T15:41:07;-1.10;77.50